Time,TemperatureF,DewpointF,PressureIn,WindDirection,WindDirectionDegrees,WindSpeedMPH,WindSpeedGustMPH,Humidity,HourlyPrecipIn,Conditions,Clouds,dailyrainin,SoftwareType,DateUTC
2013-07-07 00:01:00,77.0,73.0,29.86,SSE,160,6.0,-999.0,88,-99.99,,,-99.99,,2013-07-07 05:01:00,
2013-07-07 00:11:00,77.0,72.0,29.86,SSE,160,7.0,-999.0,83,-99.99,,,-99.99,,2013-07-07 05:11:00,
2013-07-07 00:21:00,77.0,72.0,29.86,SSE,160,7.0,-999.0,83,-99.99,,,-99.99,,2013-07-07 05:21:00,
2013-07-07 00:31:00,77.0,72.0,29.86,SSE,160,6.0,-999.0,83,-99.99,,,-99.99,,2013-07-07 05:31:00,
2013-07-07 00:41:00,77.0,72.0,29.86,SSE,160,6.0,-999.0,83,-99.99,,,-99.99,,2013-07-07 05:41:00,
2013-07-07 01:01:00,75.0,72.0,29.85,SSE,150,9.0,-999.0,88,-99.99,,,-99.99,,2013-07-07 06:01:00,
2013-07-07 01:21:00,75.0,72.0,29.86,South,170,7.0,-999.0,88,-99.99,,,-99.99,,2013-07-07 06:21:00,
2013-07-07 01:43:00,75.0,72.0,29.86,SSE,160,9.0,-999.0,88,-99.99,,,-99.99,,2013-07-07 06:43:00,
2013-07-07 02:02:00,75.0,72.0,29.85,SSE,150,7.0,-999.0,88,-99.99,,,-99.99,,2013-07-07 07:02:00,
2013-07-07 02:22:00,73.0,72.0,29.85,SSE,150,8.0,-999.0,94,-99.99,,,-99.99,,2013-07-07 07:22:00,
2013-07-07 02:44:00,73.0,70.0,29.85,SSE,150,6.0,-999.0,88,-99.99,,,-99.99,,2013-07-07 07:44:00,
2013-07-07 03:02:00,73.0,72.0,29.85,SSE,150,5.0,-999.0,94,-99.99,,,-99.99,,2013-07-07 08:02:00,
2013-07-07 03:22:00,72.0,72.0,29.85,SSE,150,5.0,-999.0,100,-99.99,,,-99.99,,2013-07-07 08:22:00,
2013-07-07 03:34:00,72.0,72.0,29.85,North,0,0.0,-999.0,100,-99.99,,,-99.99,,2013-07-07 08:34:00,
2013-07-07 03:44:00,72.0,72.0,29.85,North,0,0.0,-999.0,100,-99.99,,,-99.99,,2013-07-07 08:44:00,
2013-07-07 04:02:00,72.0,70.0,29.85,SSE,150,5.0,-999.0,94,-99.99,,,-99.99,,2013-07-07 09:02:00,
2013-07-07 04:22:00,72.0,70.0,29.85,SSE,150,6.0,-999.0,94,-99.99,,,-99.99,,2013-07-07 09:22:00,
2013-07-07 04:43:00,70.0,70.0,29.86,SSE,150,5.0,-999.0,100,-99.99,,,-99.99,,2013-07-07 09:43:00,
2013-07-07 05:03:00,70.0,70.0,29.86,North,0,0.0,-999.0,100,-99.99,,,-99.99,,2013-07-07 10:03:00,
2013-07-07 05:22:00,70.0,68.0,29.85,North,0,0.0,-999.0,94,-99.99,,,-99.99,,2013-07-07 10:22:00,
2013-07-07 05:43:00,70.0,68.0,29.85,SSE,150,5.0,-999.0,94,-99.99,,,-99.99,,2013-07-07 10:43:00,
2013-07-07 06:02:00,68.0,68.0,29.85,North,0,0.0,-999.0,100,-99.99,,,-99.99,,2013-07-07 11:02:00,
2013-07-07 06:23:00,68.0,68.0,29.86,North,0,0.0,-999.0,100,-99.99,,,-99.99,,2013-07-07 11:23:00,
2013-07-07 06:34:00,68.0,68.0,29.86,North,0,0.0,-999.0,100,-99.99,,,-99.99,,2013-07-07 11:34:00,
2013-07-07 06:43:00,68.0,68.0,29.86,North,0,0.0,-999.0,100,-99.99,,,-99.99,,2013-07-07 11:43:00,
2013-07-07 07:02:00,68.0,68.0,29.86,North,0,0.0,-999.0,100,-99.99,,,-99.99,,2013-07-07 12:02:00,
2013-07-07 07:22:00,70.0,70.0,29.87,North,0,0.0,-999.0,100,-99.99,,,-99.99,,2013-07-07 12:22:00,
2013-07-07 07:43:00,70.0,70.0,29.87,North,0,0.0,-999.0,100,-99.99,,,-99.99,,2013-07-07 12:43:00,
2013-07-07 08:02:00,70.0,70.0,29.87,North,0,0.0,-999.0,100,-99.99,,,-99.99,,2013-07-07 13:02:00,
2013-07-07 08:22:00,72.0,70.0,29.88,North,0,0.0,-999.0,94,-99.99,,,-99.99,,2013-07-07 13:22:00,
2013-07-07 08:43:00,72.0,70.0,29.88,SSE,150,6.0,-999.0,94,-99.99,,,-99.99,,2013-07-07 13:43:00,
2013-07-07 09:02:00,73.0,72.0,29.87,SE,130,8.0,-999.0,94,-99.99,,,-99.99,,2013-07-07 14:02:00,
2013-07-07 09:12:00,73.0,72.0,29.87,SE,130,8.0,-999.0,94,-99.99,,,-99.99,,2013-07-07 14:12:00,
2013-07-07 09:22:00,73.0,72.0,29.87,SE,140,8.0,-999.0,94,-99.99,,,-99.99,,2013-07-07 14:22:00,
2013-07-07 09:34:00,73.0,72.0,29.88,South,170,8.0,-999.0,94,-99.99,,,-99.99,,2013-07-07 14:34:00,
2013-07-07 09:43:00,73.0,72.0,29.88,South,170,8.0,-999.0,94,-99.99,,,-99.99,,2013-07-07 14:43:00,
2013-07-07 10:02:00,75.0,73.0,29.88,North,0,0.0,-999.0,94,-99.99,,,-99.99,,2013-07-07 15:02:00,
2013-07-07 10:11:00,75.0,72.0,29.89,North,0,0.0,-999.0,88,-99.99,,,-99.99,,2013-07-07 15:11:00,
2013-07-07 10:22:00,75.0,72.0,29.89,North,0,0.0,-999.0,88,-99.99,,,-99.99,,2013-07-07 15:22:00,
2013-07-07 10:43:00,77.0,73.0,29.89,North,0,0.0,-999.0,88,-99.99,,,-99.99,,2013-07-07 15:43:00,
2013-07-07 11:01:00,79.0,73.0,29.90,North,0,0.0,-999.0,83,-99.99,,,-99.99,,2013-07-07 16:01:00,
2013-07-07 11:11:00,79.0,73.0,29.90,North,0,0.0,-999.0,83,-99.99,,,-99.99,,2013-07-07 16:11:00,
2013-07-07 11:23:00,79.0,73.0,29.90,North,0,0.0,-999.0,83,-99.99,,,-99.99,,2013-07-07 16:23:00,
2013-07-07 11:43:00,81.0,73.0,29.90,North,0,0.0,-999.0,78,-99.99,,,-99.99,,2013-07-07 16:43:00,
2013-07-07 12:02:00,82.0,75.0,29.90,North,0,0.0,-999.0,78,-99.99,,,-99.99,,2013-07-07 17:02:00,
2013-07-07 12:22:00,82.0,75.0,29.90,North,0,0.0,-999.0,78,-99.99,,,-99.99,,2013-07-07 17:22:00,
2013-07-07 12:34:00,82.0,75.0,29.90,North,0,0.0,-999.0,78,-99.99,,,-99.99,,2013-07-07 17:34:00,
2013-07-07 12:43:00,82.0,73.0,29.90,North,0,0.0,-999.0,74,-99.99,,,-99.99,,2013-07-07 17:43:00,
2013-07-07 13:02:00,84.0,75.0,29.89,East,90,7.0,-999.0,74,-99.99,,,-99.99,,2013-07-07 18:02:00,
2013-07-07 13:11:00,84.0,75.0,29.90,NE,50,8.0,-999.0,74,-99.99,,,-99.99,,2013-07-07 18:11:00,
2013-07-07 13:22:00,84.0,75.0,29.90,NE,50,8.0,-999.0,74,-99.99,,,-99.99,,2013-07-07 18:22:00,
2013-07-07 13:43:00,82.0,75.0,29.90,ENE,60,6.0,-999.0,78,-99.99,,,-99.99,,2013-07-07 18:43:00,
2013-07-07 13:53:00,84.0,75.0,29.91,ENE,70,7.0,-999.0,74,-99.99,,,-99.99,,2013-07-07 18:53:00,
2013-07-07 14:01:00,84.0,75.0,29.91,ENE,70,7.0,-999.0,74,-99.99,,,-99.99,,2013-07-07 19:01:00,
2013-07-07 14:22:00,84.0,75.0,29.91,North,0,0.0,-999.0,74,-99.99,,,-99.99,,2013-07-07 19:22:00,
2013-07-07 14:33:00,84.0,75.0,29.91,North,0,0.0,-999.0,74,-99.99,,,-99.99,,2013-07-07 19:33:00,
2013-07-07 14:43:00,84.0,75.0,29.92,East,100,6.0,-999.0,74,-99.99,,,-99.99,,2013-07-07 19:43:00,
2013-07-07 14:54:00,84.0,75.0,29.92,North,0,0.0,-999.0,74,-99.99,,,-99.99,,2013-07-07 19:54:00,
2013-07-07 15:02:00,84.0,75.0,29.92,North,0,0.0,-999.0,74,-99.99,,,-99.99,,2013-07-07 20:02:00,
2013-07-07 15:22:00,84.0,75.0,29.91,North,0,0.0,-999.0,74,-99.99,,,-99.99,,2013-07-07 20:22:00,
2013-07-07 15:42:00,86.0,79.0,29.90,ENE,70,5.0,-999.0,79,-99.99,,,-99.99,,2013-07-07 20:42:00,
2013-07-07 16:02:00,88.0,75.0,29.91,North,0,0.0,-999.0,66,-99.99,,,-99.99,,2013-07-07 21:02:00,
2013-07-07 16:22:00,86.0,75.0,29.90,North,0,0.0,-999.0,70,-99.99,,,-99.99,,2013-07-07 21:22:00,
2013-07-07 16:43:00,86.0,77.0,29.90,North,0,0.0,-999.0,74,-99.99,,,-99.99,,2013-07-07 21:43:00,
2013-07-07 17:01:00,86.0,77.0,29.90,North,0,0.0,-999.0,74,-99.99,,,-99.99,,2013-07-07 22:01:00,
2013-07-07 17:22:00,88.0,79.0,29.89,North,0,0.0,-999.0,74,-99.99,,,-99.99,,2013-07-07 22:22:00,
2013-07-07 17:34:00,88.0,79.0,29.89,North,0,0.0,-999.0,74,-99.99,,,-99.99,,2013-07-07 22:34:00,
2013-07-07 17:43:00,88.0,79.0,29.90,North,0,0.0,-999.0,74,-99.99,,,-99.99,,2013-07-07 22:43:00,
2013-07-07 18:02:00,86.0,79.0,29.90,North,0,0.0,-999.0,79,-99.99,,,-99.99,,2013-07-07 23:02:00,
2013-07-07 18:22:00,86.0,79.0,29.89,North,0,0.0,-999.0,79,-99.99,,,-99.99,,2013-07-07 23:22:00,
2013-07-07 18:33:00,86.0,79.0,29.90,North,0,0.0,-999.0,79,-99.99,,,-99.99,,2013-07-07 23:33:00,
2013-07-07 18:43:00,86.0,79.0,29.90,North,0,0.0,-999.0,79,-99.99,,,-99.99,,2013-07-07 23:43:00,
2013-07-07 19:01:00,84.0,79.0,29.90,North,0,0.0,-999.0,83,-99.99,,,-99.99,,2013-07-08 00:01:00,
2013-07-07 19:22:00,84.0,79.0,29.90,North,0,0.0,-999.0,83,-99.99,,,-99.99,,2013-07-08 00:22:00,
2013-07-07 19:33:00,84.0,79.0,29.90,North,0,0.0,-999.0,83,-99.99,,,-99.99,,2013-07-08 00:33:00,
2013-07-07 19:43:00,86.0,81.0,29.92,North,0,0.0,-999.0,83,-99.99,,,-99.99,,2013-07-08 00:43:00,
2013-07-07 19:53:00,84.0,81.0,29.93,NNW,330,7.0,-999.0,88,-99.99,,,-99.99,,2013-07-08 00:53:00,
2013-07-07 20:01:00,84.0,81.0,29.93,NNW,330,7.0,-999.0,88,-99.99,,,-99.99,,2013-07-08 01:01:00,
2013-07-07 20:22:00,84.0,81.0,29.94,NNW,330,6.0,-999.0,88,-99.99,,,-99.99,,2013-07-08 01:22:00,
2013-07-07 20:32:00,84.0,81.0,29.94,NNW,330,6.0,-999.0,88,-99.99,,,-99.99,,2013-07-08 01:32:00,
2013-07-07 20:43:00,79.0,73.0,29.95,NNW,340,20.0,31.0,83,-99.99,,,-99.99,,2013-07-08 01:43:00,
2013-07-07 21:02:00,73.0,73.0,29.96,NNE,20,12.0,20.0,100,-99.99,,,-99.99,,2013-07-08 02:02:00,
2013-07-07 21:22:00,73.0,73.0,29.90,ENE,60,9.0,-999.0,100,-99.99,,,-99.99,,2013-07-08 02:22:00,
2013-07-07 21:42:00,72.0,72.0,29.92,North,0,0.0,-999.0,100,-99.99,,,-99.99,,2013-07-08 02:42:00,
2013-07-07 22:01:00,72.0,72.0,29.91,North,0,0.0,-999.0,100,-99.99,,,-99.99,,2013-07-08 03:01:00,
2013-07-07 22:23:00,72.0,72.0,29.94,North,0,0.0,-999.0,100,-99.99,,,-99.99,,2013-07-08 03:23:00,
2013-07-07 22:34:00,72.0,72.0,29.94,North,0,0.0,-999.0,100,-99.99,,,-99.99,,2013-07-08 03:34:00,
2013-07-07 22:42:00,72.0,72.0,29.94,North,0,0.0,-999.0,100,-99.99,,,-99.99,,2013-07-08 03:42:00,
2013-07-07 23:02:00,72.0,72.0,29.95,North,0,0.0,-999.0,100,-99.99,,,-99.99,,2013-07-08 04:02:00,
2013-07-07 23:22:00,72.0,72.0,29.96,North,-999,-999.0,-999.0,100,-99.99,,,-99.99,,2013-07-08 04:22:00,
2013-07-07 23:42:00,72.0,72.0,29.98,North,-999,-999.0,-999.0,100,-99.99,,,-99.99,,2013-07-08 04:42:00,